Time;durP1;ratioP1;P1;durP2;ratioP2;P2;SDS_P1;SDS_P2;PMS_P1;PMS_P2;Temp;Humidity;BMP_temperature;BMP_pressure;BME280_temperature;BME280_humidity;BME280_pressure;Samples;Min_cycle;Max_cycle;Signal;HPM_P1;HPM_P2
2022/11/03 00:01:45;;;;;;;7.73;2.50;;;9.50;99.90;;;;;;5017470;28;20233;-58
2022/11/03 00:04:15;;;;;;;8.17;2.40;;;9.40;99.90;;;;;;5018379;28;20226;-58
2022/11/03 00:06:44;;;;;;;8.13;2.30;;;9.40;99.90;;;;;;5018330;28;20229;-59
2022/11/03 00:09:15;;;;;;;10.13;2.03;;;9.40;99.90;;;;;;5018832;28;20703;-57
2022/11/03 00:11:45;;;;;;;5.60;2.10;;;9.40;99.90;;;;;;5018008;28;20460;-58
2022/11/03 00:14:14;;;;;;;7.60;2.30;;;9.40;99.90;;;;;;5017543;28;20229;-58
2022/11/03 00:16:44;;;;;;;10.93;2.50;;;9.40;99.90;;;;;;5002181;28;20240;-58
2022/11/03 00:19:13;;;;;;;6.70;2.00;;;9.40;99.90;;;;;;5010372;28;20236;-59
2022/11/03 00:21:42;;;;;;;8.50;2.30;;;9.40;99.90;;;;;;5017482;28;20222;-58
2022/11/03 00:24:10;;;;;;;5.83;2.03;;;9.40;99.90;;;;;;5014409;28;20237;-58
2022/11/03 00:26:39;;;;;;;7.57;1.93;;;9.40;99.90;;;;;;5013659;28;20222;-58
2022/11/03 00:29:09;;;;;;;7.80;2.17;;;9.50;99.90;;;;;;5017895;28;20225;-58
2022/11/03 00:31:39;;;;;;;9.47;1.97;;;9.50;99.90;;;;;;5016643;28;20586;-57
2022/11/03 00:34:09;;;;;;;6.10;2.00;;;9.50;99.90;;;;;;5017497;28;20241;-58
2022/11/03 00:36:39;;;;;;;7.57;2.30;;;9.40;99.90;;;;;;5017417;28;20244;-58
2022/11/03 00:39:08;;;;;;;6.83;2.10;;;9.50;99.90;;;;;;5017795;28;20246;-58
2022/11/03 00:41:36;;;;;;;5.17;2.07;;;9.50;99.90;;;;;;5017546;28;20234;-58
2022/11/03 00:44:04;;;;;;;4.57;2.00;;;9.50;99.90;;;;;;5014271;28;20702;-58
2022/11/03 00:46:34;;;;;;;7.20;2.23;;;9.50;99.90;;;;;;5012373;28;20221;-59
2022/11/03 00:49:03;;;;;;;6.47;2.13;;;9.50;99.90;;;;;;5014451;28;20240;-58
2022/11/03 00:51:34;;;;;;;5.13;1.97;;;9.50;99.90;;;;;;5008213;28;20707;-58
2022/11/03 00:54:05;;;;;;;6.97;2.10;;;9.50;99.90;;;;;;5017028;28;20577;-58
2022/11/03 00:56:35;;;;;;;7.80;2.60;;;9.60;99.90;;;;;;5002047;28;20673;-58
2022/11/03 00:59:04;;;;;;;6.77;2.20;;;9.60;99.90;;;;;;4997561;28;20272;-59
2022/11/03 01:01:34;;;;;;;6.87;2.10;;;9.50;99.90;;;;;;5007510;28;20229;-58
2022/11/03 01:06:59;;;;;;;7.70;2.07;;;9.60;99.90;;;;;;5017132;28;20229;-59
2022/11/03 01:09:30;;;;;;;7.53;2.40;;;9.60;99.90;;;;;;5017013;28;20233;-58
2022/11/03 01:12:00;;;;;;;7.50;2.17;;;9.60;99.90;;;;;;5016063;28;20242;-60
2022/11/03 01:14:30;;;;;;;6.97;2.20;;;9.60;99.90;;;;;;5007862;28;20237;-59
2022/11/03 01:16:59;;;;;;;8.20;2.00;;;9.60;99.90;;;;;;5001528;28;20304;-58
2022/11/03 01:19:27;;;;;;;7.07;2.63;;;9.60;99.90;;;;;;5010773;28;20226;-59
2022/11/03 01:21:56;;;;;;;9.43;1.90;;;9.50;99.90;;;;;;5006721;28;20237;-59
2022/11/03 01:24:24;;;;;;;7.30;2.13;;;9.60;99.90;;;;;;5012979;28;20645;-58
2022/11/03 01:26:52;;;;;;;7.80;2.57;;;9.60;99.90;;;;;;4998931;28;20234;-58
2022/11/03 01:29:21;;;;;;;9.80;2.20;;;9.60;99.90;;;;;;4997209;28;20226;-58
2022/11/03 01:31:49;;;;;;;8.13;2.10;;;9.50;99.90;;;;;;5008755;28;20235;-58
2022/11/03 01:34:19;;;;;;;8.90;2.47;;;9.60;99.90;;;;;;5017109;28;20239;-57
2022/11/03 01:36:47;;;;;;;5.57;2.00;;;9.50;99.90;;;;;;5016220;28;20233;-58
2022/11/03 01:39:18;;;;;;;8.10;2.27;;;9.60;99.90;;;;;;5016474;28;20241;-58
2022/11/03 01:41:47;;;;;;;7.67;2.00;;;9.60;99.90;;;;;;5016746;28;20248;-58
2022/11/03 01:44:33;;;;;;;6.60;2.37;;;9.60;99.90;;;;;;5007883;28;20332;-58
2022/11/03 01:47:17;;;;;;;6.10;2.30;;;9.60;99.90;;;;;;5001011;28;20763;-58
2022/11/03 01:49:49;;;;;;;8.07;2.17;;;9.60;99.90;;;;;;5008098;28;20566;-58
2022/11/03 01:52:23;;;;;;;5.77;2.20;;;9.60;99.90;;;;;;5016598;28;20244;-59
2022/11/03 01:54:58;;;;;;;7.77;2.17;;;9.60;99.90;;;;;;5013089;28;20228;-58
2022/11/03 01:57:34;;;;;;;5.30;1.80;;;9.60;99.90;;;;;;5009378;28;20236;-58
2022/11/03 02:00:03;;;;;;;6.03;1.53;;;9.60;99.90;;;;;;5016632;28;20235;-58
2022/11/03 02:02:40;;;;;;;6.50;1.93;;;9.60;99.90;;;;;;5015359;28;20245;-58
2022/11/03 02:05:10;;;;;;;7.60;2.07;;;9.60;99.90;;;;;;5016593;28;20580;-58
2022/11/03 02:07:44;;;;;;;7.07;1.80;;;9.60;99.90;;;;;;5016452;28;20234;-59
2022/11/03 02:10:13;;;;;;;7.77;1.90;;;9.60;99.90;;;;;;5016306;28;20229;-58
2022/11/03 02:12:44;;;;;;;5.70;1.60;;;9.60;99.90;;;;;;5016353;28;20221;-58
2022/11/03 02:15:14;;;;;;;5.53;2.20;;;9.60;99.90;;;;;;5008417;28;20225;-58
2022/11/03 02:17:43;;;;;;;6.20;1.90;;;9.70;99.90;;;;;;5016121;28;20269;-58
2022/11/03 02:20:15;;;;;;;6.40;1.90;;;9.60;99.90;;;;;;5008692;28;20697;-58
2022/11/03 02:23:04;;;;;;;7.63;2.20;;;9.60;99.90;;;;;;5015594;28;20222;-59
2022/11/03 02:25:43;;;;;;;6.03;1.70;;;9.60;99.90;;;;;;5010325;28;20251;-58
2022/11/03 02:28:12;;;;;;;8.27;2.10;;;9.60;99.90;;;;;;5015691;28;20214;-56
2022/11/03 02:30:47;;;;;;;6.30;2.03;;;9.60;99.90;;;;;;5015223;28;20249;-58
2022/11/03 02:33:25;;;;;;;10.23;2.07;;;9.60;99.90;;;;;;5015795;28;20226;-58
2022/11/03 02:35:59;;;;;;;6.70;1.83;;;9.60;99.90;;;;;;5015655;28;20217;-58
2022/11/03 02:38:30;;;;;;;7.83;1.90;;;9.60;99.90;;;;;;5015849;28;20257;-58
2022/11/03 02:41:03;;;;;;;8.60;1.90;;;9.60;99.90;;;;;;5016110;28;20225;-58
2022/11/03 02:43:31;;;;;;;7.83;2.23;;;9.60;99.90;;;;;;5015626;28;20238;-58
2022/11/03 02:46:00;;;;;;;9.87;2.60;;;9.60;99.90;;;;;;5007283;28;20233;-58
2022/11/03 02:48:29;;;;;;;5.50;1.63;;;9.60;99.90;;;;;;5009759;28;20590;-59
2022/11/03 02:50:57;;;;;;;5.47;2.00;;;9.60;99.90;;;;;;5013506;28;20618;-58
2022/11/03 02:53:28;;;;;;;4.80;2.00;;;9.50;99.90;;;;;;5015749;28;20273;-58
2022/11/03 02:56:09;;;;;;;7.77;2.10;;;9.50;99.90;;;;;;5007222;28;20245;-58
2022/11/03 02:58:44;;;;;;;5.93;1.97;;;9.50;99.90;;;;;;5015596;28;20229;-58
2022/11/03 03:01:18;;;;;;;5.17;1.50;;;9.50;99.90;;;;;;5014898;28;20241;-58
2022/11/03 03:03:50;;;;;;;7.50;1.90;;;9.50;99.90;;;;;;5015062;28;20779;-58
2022/11/03 03:06:22;;;;;;;8.83;2.10;;;9.50;99.90;;;;;;5015069;28;20239;-58
2022/11/03 03:08:57;;;;;;;5.60;1.73;;;9.50;99.90;;;;;;5015133;28;20243;-58
2022/11/03 03:11:38;;;;;;;8.00;2.07;;;9.50;99.90;;;;;;5014877;28;20229;-58
2022/11/03 03:14:11;;;;;;;6.33;1.70;;;9.40;99.90;;;;;;5014478;28;20244;-58
2022/11/03 03:16:48;;;;;;;6.73;2.00;;;9.50;99.90;;;;;;5000656;28;20225;-58
2022/11/03 03:19:28;;;;;;;9.47;2.33;;;9.40;99.90;;;;;;5007426;28;20700;-58
2022/11/03 03:21:59;;;;;;;7.57;2.40;;;9.40;99.90;;;;;;5014948;28;20233;-58
2022/11/03 03:24:36;;;;;;;9.20;2.13;;;9.40;99.90;;;;;;5008355;28;20244;-58
2022/11/03 03:27:09;;;;;;;6.40;1.80;;;9.30;99.90;;;;;;5014592;28;20226;-58
2022/11/03 03:29:41;;;;;;;7.33;2.07;;;9.30;99.90;;;;;;5014777;28;20686;-58
2022/11/03 03:32:10;;;;;;;5.50;1.80;;;9.30;99.90;;;;;;5014790;28;20725;-58
2022/11/03 03:34:42;;;;;;;6.53;1.90;;;9.40;99.90;;;;;;5014260;28;20230;-58
2022/11/03 03:37:11;;;;;;;7.70;2.10;;;9.40;99.90;;;;;;5014898;28;20226;-58
2022/11/03 03:39:42;;;;;;;6.77;1.90;;;9.40;99.90;;;;;;5014268;28;20229;-58
2022/11/03 03:42:14;;;;;;;11.93;2.43;;;9.30;99.90;;;;;;5014827;28;20238;-58
2022/11/03 03:44:44;;;;;;;5.87;2.13;;;9.30;99.90;;;;;;5006416;28;20234;-58
2022/11/03 03:47:19;;;;;;;8.77;1.90;;;9.30;99.90;;;;;;4998674;28;20284;-58
2022/11/03 03:49:47;;;;;;;3.83;1.60;;;9.30;99.90;;;;;;5006088;28;20240;-58
2022/11/03 03:52:15;;;;;;;5.83;2.23;;;9.30;99.90;;;;;;5014309;28;20244;-58
2022/11/03 03:54:43;;;;;;;9.27;1.80;;;9.30;99.90;;;;;;5005616;28;20747;-58
2022/11/03 03:57:15;;;;;;;3.97;1.70;;;9.30;99.90;;;;;;5003316;28;20228;-58
2022/11/03 03:59:44;;;;;;;5.57;1.57;;;9.30;99.90;;;;;;5004846;28;20316;-57
2022/11/03 04:02:13;;;;;;;8.73;2.03;;;9.30;99.90;;;;;;5011394;28;20233;-58
2022/11/03 04:04:41;;;;;;;5.40;1.63;;;9.20;99.90;;;;;;4996354;28;20261;-58
2022/11/03 04:09:55;;;;;;;8.37;2.47;;;9.20;99.90;;;;;;5002193;28;20222;-58
2022/11/03 04:23:29;;;;;;;5.93;1.90;;;9.10;99.90;;;;;;5006397;28;20229;-58
2022/11/03 04:25:58;;;;;;;8.43;2.10;;;9.20;99.90;;;;;;5010381;28;20623;-58
2022/11/03 04:28:28;;;;;;;8.60;1.83;;;9.10;99.90;;;;;;5017785;28;20728;-58
2022/11/03 04:30:57;;;;;;;7.77;2.40;;;9.20;99.90;;;;;;5016644;28;20272;-58
2022/11/03 04:33:26;;;;;;;6.53;1.87;;;9.20;99.90;;;;;;5017215;28;20221;-57
2022/11/03 04:35:57;;;;;;;5.93;1.60;;;9.10;99.90;;;;;;5017387;28;20229;-58
2022/11/03 04:38:27;;;;;;;5.47;2.10;;;9.10;99.90;;;;;;5017362;28;20689;-58
2022/11/03 04:40:57;;;;;;;7.77;2.00;;;9.10;99.90;;;;;;5017513;28;20229;-58
2022/11/03 04:43:34;;;;;;;4.13;1.60;;;9.10;99.90;;;;;;5016895;28;20304;-57
2022/11/03 04:46:05;;;;;;;8.77;1.87;;;9.20;99.90;;;;;;5009039;28;20291;-58
2022/11/03 04:48:34;;;;;;;8.33;2.00;;;9.10;99.90;;;;;;5015892;28;20275;-58
2022/11/03 04:51:09;;;;;;;6.50;1.77;;;9.20;99.90;;;;;;5016784;28;20632;-58
2022/11/03 04:53:37;;;;;;;6.97;2.00;;;9.20;99.90;;;;;;5016819;28;20677;-58
2022/11/03 04:56:15;;;;;;;6.83;2.00;;;9.20;99.90;;;;;;5008784;28;20229;-58
2022/11/03 04:58:46;;;;;;;6.23;1.80;;;9.20;99.90;;;;;;5016946;28;20236;-58
2022/11/03 05:01:18;;;;;;;7.73;2.60;;;9.20;99.90;;;;;;5016404;28;20229;-59
2022/11/03 05:03:53;;;;;;;4.33;1.67;;;9.20;99.90;;;;;;5016336;28;20750;-58
2022/11/03 05:06:23;;;;;;;5.77;1.93;;;9.10;99.90;;;;;;5016900;28;20238;-58
2022/11/03 05:08:53;;;;;;;6.10;1.70;;;9.10;99.90;;;;;;5016645;28;20280;-58
2022/11/03 05:11:28;;;;;;;6.13;1.80;;;9.10;99.90;;;;;;5015987;28;20284;-58
2022/11/03 05:13:59;;;;;;;7.80;2.23;;;9.10;99.90;;;;;;5013373;28;20228;-58
2022/11/03 05:16:28;;;;;;;6.53;1.90;;;9.10;99.90;;;;;;4998216;28;20230;-58
2022/11/03 05:18:56;;;;;;;7.97;2.50;;;9.10;99.90;;;;;;5007000;28;20230;-58
2022/11/03 05:21:26;;;;;;;7.37;1.90;;;9.20;99.90;;;;;;5015594;28;20624;-56
2022/11/03 05:23:58;;;;;;;3.67;1.40;;;9.20;99.90;;;;;;5015177;28;20221;-58
2022/11/03 05:26:29;;;;;;;8.70;2.43;;;9.20;99.90;;;;;;5015853;28;20221;-58
2022/11/03 05:29:02;;;;;;;7.13;2.03;;;9.10;99.90;;;;;;5029635;28;20241;-58
2022/11/03 05:31:32;;;;;;;6.03;2.40;;;9.20;99.90;;;;;;5035465;28;20596;-58
2022/11/03 05:34:02;;;;;;;6.73;2.10;;;9.20;99.90;;;;;;5036010;28;20224;-58
2022/11/03 05:36:33;;;;;;;6.20;1.70;;;9.10;99.90;;;;;;5025505;28;20623;-57
2022/11/03 05:39:23;;;;;;;13.90;2.40;;;9.10;99.90;;;;;;5016346;28;20695;-58
2022/11/03 05:41:51;;;;;;;6.63;1.93;;;9.10;99.90;;;;;;5016256;28;20233;-58
2022/11/03 05:44:28;;;;;;;6.47;2.03;;;9.20;99.90;;;;;;5015582;28;20760;-58
2022/11/03 05:46:58;;;;;;;8.47;1.97;;;9.20;99.90;;;;;;5006226;28;20230;-58
2022/11/03 05:49:32;;;;;;;10.63;2.50;;;9.20;99.90;;;;;;5003972;28;20233;-58
2022/11/03 05:52:01;;;;;;;6.33;2.10;;;9.20;99.90;;;;;;5000845;28;20283;-58
2022/11/03 05:54:34;;;;;;;5.80;1.97;;;9.20;99.90;;;;;;5016091;28;20245;-58
2022/11/03 05:57:02;;;;;;;7.37;2.60;;;9.20;99.90;;;;;;5015032;28;20244;-58
2022/11/03 05:59:31;;;;;;;6.67;2.10;;;9.20;99.90;;;;;;5015518;28;20225;-58
2022/11/03 06:02:00;;;;;;;10.87;2.20;;;9.20;99.90;;;;;;5014362;28;20244;-58
2022/11/03 06:04:32;;;;;;;9.20;2.50;;;9.20;99.90;;;;;;5015349;28;20754;-58
2022/11/03 06:07:03;;;;;;;8.67;2.27;;;9.20;99.90;;;;;;5015656;28;20224;-58
2022/11/03 06:09:34;;;;;;;8.37;2.10;;;9.30;99.90;;;;;;5015214;28;20221;-57
2022/11/03 06:12:06;;;;;;;7.83;2.20;;;9.30;99.90;;;;;;5015757;28;20302;-58
2022/11/03 06:14:37;;;;;;;10.23;2.33;;;9.30;99.90;;;;;;5006743;28;20225;-58
2022/11/03 06:17:10;;;;;;;9.93;2.50;;;9.30;99.90;;;;;;5010469;28;20632;-56
2022/11/03 06:19:39;;;;;;;7.43;2.23;;;9.30;99.90;;;;;;5001525;28;20223;-56
2022/11/03 06:22:16;;;;;;;7.00;2.40;;;9.30;99.90;;;;;;5005687;28;20317;-56
2022/11/03 06:24:44;;;;;;;8.70;2.20;;;9.20;99.90;;;;;;5004597;28;20236;-55
2022/11/03 06:27:14;;;;;;;5.93;2.10;;;9.30;99.90;;;;;;5006609;28;20298;-56
2022/11/03 06:29:48;;;;;;;5.57;1.83;;;9.30;99.90;;;;;;5001616;28;20234;-56
2022/11/03 06:32:17;;;;;;;7.83;2.20;;;9.30;99.90;;;;;;5004962;28;20677;-56
2022/11/03 06:34:49;;;;;;;7.13;2.10;;;9.30;99.90;;;;;;5012622;28;20283;-55
2022/11/03 06:37:21;;;;;;;7.43;2.03;;;9.30;99.90;;;;;;4999502;28;20230;-56
2022/11/03 06:39:50;;;;;;;3.53;1.70;;;9.30;99.90;;;;;;5006155;28;20245;-56
2022/11/03 06:42:21;;;;;;;4.90;1.70;;;9.30;99.90;;;;;;5009434;28;20224;-56
2022/11/03 06:44:56;;;;;;;7.07;2.30;;;9.30;99.90;;;;;;5000306;28;20303;-55
2022/11/03 06:47:25;;;;;;;9.20;2.10;;;9.30;99.90;;;;;;5000728;28;20229;-56
2022/11/03 06:49:56;;;;;;;9.83;2.20;;;9.40;99.90;;;;;;4999250;28;20273;-56
2022/11/03 06:52:27;;;;;;;6.00;2.03;;;9.40;99.90;;;;;;5000729;28;20238;-55
2022/11/03 06:55:01;;;;;;;6.23;1.93;;;9.40;99.90;;;;;;5000677;28;20476;-56
2022/11/03 06:57:33;;;;;;;6.70;2.13;;;9.40;99.90;;;;;;5001995;28;20240;-55
2022/11/03 07:00:12;;;;;;;8.03;1.90;;;9.40;99.90;;;;;;4998205;28;20348;-56
2022/11/03 07:03:06;;;;;;;7.93;2.13;;;9.40;99.90;;;;;;5000018;28;20312;-56
2022/11/03 07:05:35;;;;;;;6.53;2.43;;;9.50;99.90;;;;;;4999597;28;20252;-55
2022/11/03 07:08:20;;;;;;;7.40;2.00;;;9.50;99.90;;;;;;5001491;28;20233;-55
2022/11/03 07:10:51;;;;;;;4.80;1.63;;;9.50;99.90;;;;;;4998643;28;20749;-55
2022/11/03 07:13:24;;;;;;;6.83;1.90;;;9.50;99.90;;;;;;4997929;28;20232;-56
2022/11/03 07:15:53;;;;;;;5.47;2.07;;;9.50;99.90;;;;;;5000482;28;20217;-54
2022/11/03 07:18:25;;;;;;;9.73;2.20;;;9.60;99.90;;;;;;5000610;28;20248;-55
2022/11/03 07:20:55;;;;;;;10.83;2.10;;;9.60;99.90;;;;;;5000864;28;21064;-56
2022/11/03 07:23:28;;;;;;;9.33;2.50;;;9.60;99.90;;;;;;4999707;28;20708;-56
2022/11/03 07:25:58;;;;;;;7.97;2.70;;;9.60;99.90;;;;;;4999952;28;20246;-57
2022/11/03 07:28:33;;;;;;;7.90;2.47;;;9.60;99.90;;;;;;4999717;28;20233;-56
2022/11/03 07:31:12;;;;;;;7.90;2.73;;;9.70;99.90;;;;;;4998046;28;20304;-57
2022/11/03 07:33:43;;;;;;;10.17;2.50;;;9.70;99.90;;;;;;5001262;28;20636;-57
2022/11/03 07:36:18;;;;;;;7.83;2.07;;;9.70;99.90;;;;;;5000068;28;20234;-56
2022/11/03 07:38:50;;;;;;;7.97;2.30;;;9.70;99.90;;;;;;4998656;28;20235;-56
2022/11/03 07:41:20;;;;;;;4.90;1.70;;;9.80;99.90;;;;;;4997067;28;20225;-56
2022/11/03 07:43:53;;;;;;;7.63;2.33;;;9.80;99.90;;;;;;4999953;28;20303;-56
2022/11/03 07:46:24;;;;;;;7.30;2.53;;;9.80;99.90;;;;;;5001440;28;20245;-57
2022/11/03 07:48:55;;;;;;;6.23;2.40;;;9.80;99.90;;;;;;5003532;28;21409;-57
2022/11/03 07:51:25;;;;;;;7.43;2.50;;;9.90;99.90;;;;;;5001693;28;20253;-56
2022/11/03 07:53:56;;;;;;;9.27;2.50;;;9.90;99.90;;;;;;5002901;28;20760;-56
2022/11/03 07:56:26;;;;;;;7.60;2.30;;;9.90;99.90;;;;;;4999658;28;20233;-56
2022/11/03 07:58:59;;;;;;;11.27;2.67;;;10.00;99.90;;;;;;4999131;28;20260;-57
2022/11/03 08:01:31;;;;;;;5.83;2.27;;;10.00;99.90;;;;;;5000779;28;20760;-57
2022/11/03 08:04:04;;;;;;;9.77;2.37;;;10.10;99.90;;;;;;5007867;28;20685;-56
2022/11/03 08:06:32;;;;;;;8.07;2.30;;;10.10;99.90;;;;;;5002014;28;20328;-56
2022/11/03 08:09:00;;;;;;;7.83;2.03;;;10.10;99.90;;;;;;5004433;28;20232;-56
2022/11/03 08:11:28;;;;;;;8.67;2.23;;;10.20;99.90;;;;;;5004213;28;20241;-56
2022/11/03 08:13:57;;;;;;;7.27;2.03;;;10.20;99.90;;;;;;5000459;28;20233;-55
2022/11/03 08:16:25;;;;;;;7.70;2.30;;;10.20;99.90;;;;;;5003463;28;20234;-56
2022/11/03 08:18:55;;;;;;;7.40;2.30;;;10.30;99.90;;;;;;5002991;28;20240;-56
2022/11/03 08:21:23;;;;;;;5.60;1.97;;;10.30;99.90;;;;;;5003031;28;20566;-56
2022/11/03 08:23:51;;;;;;;8.20;2.30;;;10.30;99.90;;;;;;5001218;28;20229;-56
2022/11/03 08:26:19;;;;;;;7.87;2.57;;;10.40;99.90;;;;;;5002534;28;20241;-56
2022/11/03 08:28:48;;;;;;;5.90;2.50;;;10.40;99.90;;;;;;5002701;28;20241;-56
2022/11/03 08:31:16;;;;;;;8.40;2.23;;;10.40;99.90;;;;;;5002007;28;20279;-55
2022/11/03 08:33:44;;;;;;;6.40;2.10;;;10.50;99.90;;;;;;5000931;28;20320;-57
2022/11/03 08:36:13;;;;;;;7.03;2.03;;;10.60;99.90;;;;;;5002483;28;20287;-56
2022/11/03 08:38:41;;;;;;;8.07;2.10;;;10.70;99.90;;;;;;5002497;28;20720;-56
2022/11/03 08:41:09;;;;;;;9.33;2.30;;;10.70;99.90;;;;;;5002681;28;20285;-56
2022/11/03 08:43:37;;;;;;;6.77;2.07;;;10.90;99.90;;;;;;5002768;28;20257;-56
2022/11/03 08:46:05;;;;;;;9.37;2.80;;;11.00;99.90;;;;;;5003438;28;20235;-57
2022/11/03 08:48:45;;;;;;;9.07;2.17;;;11.10;99.90;;;;;;5001113;28;20268;-56
2022/11/03 08:51:16;;;;;;;5.83;2.10;;;11.20;99.90;;;;;;5004063;28;20233;-56
2022/11/03 08:53:45;;;;;;;6.63;2.07;;;11.40;99.90;;;;;;5000028;28;20272;-55
2022/11/03 08:56:13;;;;;;;13.40;2.40;;;11.50;99.90;;;;;;5003742;28;20220;-56
2022/11/03 08:58:46;;;;;;;9.00;1.90;;;11.70;99.90;;;;;;5003563;28;20230;-57
2022/11/03 09:01:14;;;;;;;8.20;2.07;;;11.80;99.90;;;;;;5001603;28;20242;-57
2022/11/03 09:03:42;;;;;;;6.17;2.30;;;11.90;99.90;;;;;;5000551;28;20700;-56
2022/11/03 09:06:10;;;;;;;8.53;2.13;;;12.00;99.90;;;;;;5002028;28;20247;-57
2022/11/03 09:08:39;;;;;;;4.93;1.93;;;12.00;99.90;;;;;;5001708;28;20582;-57
2022/11/03 09:11:27;;;;;;;5.67;1.90;;;12.10;99.90;;;;;;5003704;28;20239;-56
2022/11/03 09:13:56;;;;;;;9.63;2.20;;;12.10;99.90;;;;;;5003219;28;20271;-56
2022/11/03 09:16:25;;;;;;;8.73;1.97;;;12.10;99.90;;;;;;5006927;28;20231;-57
2022/11/03 09:18:53;;;;;;;5.50;1.80;;;12.10;99.90;;;;;;5004050;28;20235;-56
2022/11/03 09:21:21;;;;;;;8.53;2.00;;;12.10;99.90;;;;;;5002501;28;20231;-56
2022/11/03 09:23:50;;;;;;;5.30;2.40;;;12.20;99.90;;;;;;4999863;28;20239;-56
2022/11/03 09:26:19;;;;;;;6.60;2.23;;;12.30;99.90;;;;;;5000601;28;20238;-55
2022/11/03 09:28:48;;;;;;;7.53;2.33;;;12.40;99.90;;;;;;5002369;28;20565;-57
2022/11/03 09:31:16;;;;;;;5.93;2.20;;;12.30;99.90;;;;;;5001295;28;20251;-56
2022/11/03 09:33:44;;;;;;;6.60;2.10;;;12.40;99.90;;;;;;4999980;28;20815;-57
2022/11/03 09:36:12;;;;;;;6.17;2.30;;;12.40;99.90;;;;;;5002744;28;20695;-56
2022/11/03 09:38:40;;;;;;;4.57;2.00;;;12.50;99.90;;;;;;5002064;28;20240;-57
2022/11/03 09:41:16;;;;;;;9.40;2.57;;;12.50;99.90;;;;;;5001715;28;20235;-57
2022/11/03 09:43:55;;;;;;;7.03;2.23;;;12.70;99.90;;;;;;4998637;28;20286;-56
2022/11/03 09:46:24;;;;;;;7.83;2.20;;;12.80;99.90;;;;;;5004725;28;20761;-57
2022/11/03 09:48:54;;;;;;;6.40;2.30;;;12.80;99.90;;;;;;5005889;28;20236;-57
2022/11/03 09:51:23;;;;;;;6.70;2.03;;;12.80;99.90;;;;;;5003400;28;20236;-57
2022/11/03 09:53:51;;;;;;;7.13;2.00;;;12.80;99.90;;;;;;4998275;28;20227;-57
2022/11/03 09:56:22;;;;;;;5.87;2.00;;;12.70;99.90;;;;;;5000529;28;20236;-57
2022/11/03 09:58:51;;;;;;;5.53;2.00;;;12.70;99.90;;;;;;5001684;28;20278;-56
2022/11/03 10:01:22;;;;;;;8.17;2.57;;;12.70;99.90;;;;;;4998320;28;20239;-57
2022/11/03 10:03:50;;;;;;;7.33;2.20;;;12.70;99.90;;;;;;4997535;28;20235;-56
2022/11/03 10:06:20;;;;;;;5.27;1.70;;;12.80;99.90;;;;;;5002258;28;20699;-56
2022/11/03 10:08:48;;;;;;;7.03;2.33;;;12.80;99.90;;;;;;4999779;28;21102;-57
2022/11/03 10:11:17;;;;;;;8.17;2.57;;;12.80;99.90;;;;;;5001143;28;20234;-56
2022/11/03 10:13:49;;;;;;;7.20;2.23;;;12.90;99.90;;;;;;5001580;28;20651;-56
2022/11/03 10:16:20;;;;;;;7.90;1.87;;;12.90;99.90;;;;;;5004013;28;20737;-57
2022/11/03 10:18:49;;;;;;;7.63;1.90;;;12.90;99.90;;;;;;5003963;28;20627;-58
2022/11/03 10:21:20;;;;;;;6.20;2.10;;;12.80;99.90;;;;;;5004032;28;20700;-56
2022/11/03 10:23:49;;;;;;;8.47;2.00;;;12.80;99.90;;;;;;5001530;28;20587;-58
2022/11/03 10:26:19;;;;;;;9.60;2.20;;;12.90;99.90;;;;;;5002582;28;20561;-57
2022/11/03 10:29:03;;;;;;;7.20;2.60;;;12.90;99.90;;;;;;5003126;28;20647;-58
2022/11/03 10:31:36;;;;;;;6.47;2.37;;;13.00;99.90;;;;;;5004210;28;20340;-55
2022/11/03 10:34:06;;;;;;;5.97;2.20;;;13.00;99.90;;;;;;5002839;28;20255;-56
2022/11/03 10:36:35;;;;;;;5.17;2.17;;;13.00;99.90;;;;;;5003649;28;20230;-56
2022/11/03 10:39:25;;;;;;;6.23;2.20;;;13.10;99.90;;;;;;5003261;28;20244;-56
2022/11/03 10:41:57;;;;;;;9.73;2.20;;;13.10;99.90;;;;;;5004678;28;20701;-57
2022/11/03 10:44:28;;;;;;;4.63;1.70;;;13.20;99.90;;;;;;5001852;28;20249;-57
2022/11/03 10:46:58;;;;;;;4.27;1.97;;;13.20;99.90;;;;;;5002029;28;20239;-56
2022/11/03 10:49:28;;;;;;;6.10;2.00;;;13.30;99.90;;;;;;5002529;28;20236;-57
2022/11/03 10:52:08;;;;;;;6.27;2.27;;;13.30;99.90;;;;;;5003461;28;20240;-56
2022/11/03 10:54:36;;;;;;;5.77;2.17;;;13.30;99.90;;;;;;5002567;28;20232;-57
2022/11/03 10:57:05;;;;;;;5.13;2.13;;;13.30;99.90;;;;;;5002387;28;20767;-57
2022/11/03 10:59:37;;;;;;;4.93;1.87;;;13.40;99.90;;;;;;4997468;28;20240;-56
2022/11/03 11:02:15;;;;;;;6.17;1.93;;;13.40;99.90;;;;;;4997832;28;20274;-56
2022/11/03 11:04:44;;;;;;;8.20;2.27;;;13.50;99.90;;;;;;4998759;28;20236;-57
2022/11/03 11:07:19;;;;;;;5.20;1.97;;;13.60;99.90;;;;;;4998989;28;20247;-57
2022/11/03 11:09:48;;;;;;;9.77;2.43;;;13.60;99.90;;;;;;4999651;28;20319;-57
2022/11/03 11:12:18;;;;;;;7.83;2.20;;;13.60;99.90;;;;;;5000850;28;20505;-59
2022/11/03 11:14:56;;;;;;;8.97;2.30;;;13.60;99.90;;;;;;4997628;28;20237;-57
2022/11/03 11:17:48;;;;;;;8.07;2.13;;;13.70;99.90;;;;;;5000984;28;20228;-57
2022/11/03 11:20:35;;;;;;;8.83;2.10;;;13.80;99.90;;;;;;4999108;28;20613;-58
2022/11/03 11:23:51;;;;;;;7.70;2.33;;;13.90;99.90;;;;;;4999541;28;20232;-57
2022/11/03 11:26:40;;;;;;;7.30;2.20;;;13.90;99.90;;;;;;4999180;28;20232;-56
2022/11/03 11:29:42;;;;;;;8.90;3.00;;;13.90;99.90;;;;;;4998128;28;20719;-58
2022/11/03 11:32:47;;;;;;;6.33;2.40;;;13.90;99.90;;;;;;4998782;28;20244;-57
2022/11/03 11:36:05;;;;;;;6.67;2.33;;;13.80;99.90;;;;;;5000659;28;20718;-56
2022/11/03 11:39:34;;;;;;;6.20;2.17;;;13.90;99.90;;;;;;5002825;28;20229;-56
2022/11/03 11:42:12;;;;;;;5.03;2.30;;;13.90;99.90;;;;;;5002001;28;20240;-57
2022/11/03 11:44:56;;;;;;;6.27;2.17;;;14.00;99.90;;;;;;5000916;28;20258;-56
2022/11/03 11:47:30;;;;;;;8.40;2.37;;;14.00;99.90;;;;;;5002790;28;20231;-57
2022/11/03 11:50:20;;;;;;;7.47;1.87;;;13.90;99.90;;;;;;5004908;28;20243;-56
2022/11/03 11:52:53;;;;;;;7.90;1.97;;;13.90;99.90;;;;;;4996854;28;20299;-57
2022/11/03 11:55:30;;;;;;;8.93;2.20;;;13.80;99.90;;;;;;5001491;28;20250;-56
2022/11/03 11:58:00;;;;;;;7.07;2.30;;;13.90;99.90;;;;;;5005366;28;20805;-57
2022/11/03 12:00:30;;;;;;;7.03;3.30;;;13.90;99.90;;;;;;5001890;28;20268;-56
2022/11/03 12:03:01;;;;;;;11.90;7.07;;;13.90;99.90;;;;;;5002739;28;20284;-56
2022/11/03 12:05:31;;;;;;;7.33;3.60;;;13.90;99.90;;;;;;4999705;28;20803;-56
2022/11/03 12:08:00;;;;;;;7.97;3.90;;;13.90;99.90;;;;;;5005520;28;20269;-56
2022/11/03 12:10:31;;;;;;;7.47;3.00;;;13.90;99.90;;;;;;5004229;28;20237;-56
2022/11/03 12:13:00;;;;;;;7.63;3.50;;;14.00;99.90;;;;;;5004627;28;20227;-57
2022/11/03 12:15:54;;;;;;;7.13;3.13;;;14.10;99.90;;;;;;5003592;28;20244;-56
2022/11/03 12:18:30;;;;;;;6.53;2.00;;;14.20;99.90;;;;;;5004595;28;20252;-57
2022/11/03 12:21:07;;;;;;;7.80;2.30;;;14.30;99.90;;;;;;5005189;28;20569;-57
2022/11/03 12:23:41;;;;;;;4.60;1.80;;;14.30;99.90;;;;;;5004182;28;20233;-56
2022/11/03 12:26:18;;;;;;;6.83;2.53;;;14.40;99.90;;;;;;4999829;28;20259;-56
2022/11/03 12:28:46;;;;;;;8.47;2.20;;;14.40;99.90;;;;;;5002104;28;20245;-56
2022/11/03 12:31:14;;;;;;;7.10;1.80;;;14.50;99.90;;;;;;5000024;28;20232;-57
2022/11/03 12:33:42;;;;;;;6.63;2.13;;;14.50;99.90;;;;;;5000615;28;20247;-57
2022/11/03 12:36:10;;;;;;;8.97;2.37;;;14.50;99.90;;;;;;5002518;28;20244;-56
2022/11/03 12:38:38;;;;;;;4.60;1.97;;;14.60;99.90;;;;;;4999885;28;20244;-57
2022/11/03 12:41:23;;;;;;;5.40;2.03;;;14.50;99.90;;;;;;5002026;28;20290;-57
2022/11/03 12:43:54;;;;;;;4.67;2.10;;;14.50;99.90;;;;;;5001777;28;20241;-57
2022/11/03 12:46:23;;;;;;;6.00;2.20;;;14.60;99.90;;;;;;5003540;28;20225;-56
2022/11/03 12:48:51;;;;;;;6.17;1.73;;;14.60;99.90;;;;;;5005036;28;20720;-56
2022/11/03 12:51:20;;;;;;;6.00;1.90;;;14.60;99.90;;;;;;5004000;28;20857;-55
2022/11/03 12:53:49;;;;;;;8.03;2.37;;;14.50;99.90;;;;;;4999482;28;20236;-56
2022/11/03 12:56:18;;;;;;;8.70;2.63;;;14.60;99.90;;;;;;4999771;28;20236;-56
2022/11/03 12:58:46;;;;;;;6.83;2.17;;;14.60;99.90;;;;;;5001848;28;20278;-57
2022/11/03 13:01:16;;;;;;;6.07;1.67;;;14.50;99.90;;;;;;5004156;28;20239;-56
2022/11/03 13:03:44;;;;;;;5.30;1.90;;;14.50;99.90;;;;;;5002656;28;20249;-57
2022/11/03 13:06:13;;;;;;;4.70;1.80;;;14.40;99.90;;;;;;5003420;28;20688;-56
2022/11/03 13:08:41;;;;;;;6.47;1.70;;;14.40;99.90;;;;;;5001890;28;20604;-56
2022/11/03 13:13:56;;;;;;;5.87;1.90;;;14.40;99.90;;;;;;5000258;28;20241;-56
2022/11/03 13:16:26;;;;;;;5.97;2.00;;;14.30;99.90;;;;;;5001279;28;20240;-56
2022/11/03 13:18:54;;;;;;;5.37;1.70;;;14.30;99.90;;;;;;5001023;28;20229;-57
2022/11/03 13:21:22;;;;;;;5.27;1.83;;;14.30;99.90;;;;;;5002202;28;20615;-57
2022/11/03 13:23:51;;;;;;;5.27;2.10;;;14.20;99.90;;;;;;5002148;28;20232;-56
2022/11/03 13:26:19;;;;;;;7.27;2.00;;;14.20;99.90;;;;;;5000954;28;20283;-58
2022/11/03 13:28:47;;;;;;;3.27;1.53;;;14.10;99.90;;;;;;4999637;28;20249;-57
2022/11/03 13:31:16;;;;;;;6.13;1.87;;;14.10;99.90;;;;;;5001415;28;20230;-56
2022/11/03 13:33:45;;;;;;;6.13;2.33;;;14.10;99.90;;;;;;5001290;28;20237;-56
2022/11/03 13:36:13;;;;;;;10.40;2.50;;;14.20;99.90;;;;;;5001771;28;20232;-57
2022/11/03 13:38:41;;;;;;;4.10;1.60;;;14.20;99.90;;;;;;5001902;28;20230;-56